| time (UTC) | temp C | wind direction | speed KPH | gust KPH | rain 1hr cm | rain 24hr cm | rain mn cm | humidity % | barometer mb |
| 20260905202646 | 24 | 0.0 | 0.0 | 0.00 | 0.00 | 0.00 | 55 | 1016.0 | |
| 20260905201622 | 24 | 0.0 | 0.0 | 0.00 | 0.00 | 0.00 | 54 | 1016.0 | |
| 20260905200646 | 24 | 0.0 | 0.0 | 0.00 | 0.00 | 0.00 | 54 | 1015.9 | |
| 20260905195621 | 25 | 0.0 | 0.0 | 0.00 | 0.00 | 0.00 | 53 | 1015.9 | |
| 20260905194645 | 25 | 0.0 | 0.0 | 0.00 | 0.00 | 0.00 | 53 | 1015.7 | |
| 20260905193710 | 25 | 0.0 | 0.0 | 0.00 | 0.00 | 0.00 | 53 | 1015.6 | |
| 20260905192646 | 24 | 0.0 | 0.0 | 0.00 | 0.00 | 0.00 | 53 | 1015.7 | |
| 20260905191625 | 24 | 0.0 | 0.0 | 0.00 | 0.00 | 0.00 | 54 | 1015.6 | |
| 20260905190157 | 25 | 0.0 | 0.0 | 0.00 | 0.00 | 0.00 | 53 | 1015.7 | |
| 20260905185605 | 25 | 180 | 0.0 | 1.6 | 0.00 | 0.00 | 0.00 | 53 | 1015.7 |
| 20260905184110 | 25 | 0.0 | 0.0 | 0.00 | 0.00 | 0.00 | 52 | 1015.7 | |
| 20260905183105 | 25 | 315 | 3.2 | 4.8 | 0.00 | 0.00 | 0.00 | 52 | 1015.8 |
| 20260905182111 | 26 | 315 | 3.2 | 9.7 | 0.00 | 0.00 | 0.00 | 48 | 1015.7 |
| 20260905181125 | 26 | 180 | 0.0 | 1.6 | 0.00 | 0.00 | 0.00 | 46 | 1015.4 |
| 20260905180110 | 27 | 270 | 4.8 | 8.0 | 0.00 | 0.00 | 0.00 | 43 | 1015.4 |
| 20260905175104 | 27 | 0.0 | 0.0 | 0.00 | 0.00 | 0.00 | 45 | 1015.3 | |
| 20260905174110 | 28 | 0.0 | 1.6 | 0.00 | 0.00 | 0.00 | 44 | 1015.0 | |
| 20260905173105 | 30 | 270 | 4.8 | 6.4 | 0.00 | 0.00 | 0.00 | 39 | 1014.8 |
| 20260905172109 | 30 | 270 | 1.6 | 4.8 | 0.00 | 0.00 | 0.00 | 39 | 1014.7 |
| 20260905171105 | 29 | 0.0 | 0.0 | 0.00 | 0.00 | 0.00 | 41 | 1014.8 | |
| 20260905170110 | 29 | 270 | 3.2 | 4.8 | 0.00 | 0.00 | 0.00 | 42 | 1015.1 |
| 20260905165104 | 30 | 180 | 1.6 | 4.8 | 0.00 | 0.00 | 0.00 | 41 | 1015.0 |
| 20260905164130 | 28 | 0.0 | 1.6 | 0.00 | 0.00 | 0.00 | 44 | 1015.1 | |
| 20260905163104 | 28 | 225 | 1.6 | 4.8 | 0.00 | 0.00 | 0.00 | 45 | 1014.8 |
| 20260905162109 | 28 | 180 | 4.8 | 8.0 | 0.00 | 0.00 | 0.00 | 41 | 1015.1 |
| 20260905161104 | 28 | 180 | 4.8 | 4.8 | 0.00 | 0.00 | 0.00 | 43 | 1014.7 |
| 20260905160150 | 29 | 0.0 | 1.6 | 0.00 | 0.00 | 0.00 | 44 | 1014.6 | |
| 20260905155145 | 28 | 0.0 | 0.0 | 0.00 | 0.00 | 0.00 | 45 | 1015.1 | |
| 20260905154110 | 28 | 0.0 | 0.0 | 0.00 | 0.00 | 0.00 | 45 | 1015.2 | |
| 20260905153105 | 30 | 225 | 4.8 | 8.0 | 0.00 | 0.00 | 0.00 | 37 | 1015.4 |
| 20260905152110 | 31 | 225 | 0.0 | 3.2 | 0.00 | 0.00 | 0.00 | 36 | 1015.2 |
| 20260905151105 | 30 | 180 | 1.6 | 4.8 | 0.00 | 0.00 | 0.00 | 36 | 1015.2 |
| 20260905150111 | 30 | 0.0 | 0.0 | 0.00 | 0.00 | 0.00 | 36 | 1015.4 | |
| 20260905145105 | 31 | 315 | 4.8 | 6.4 | 0.00 | 0.00 | 0.00 | 34 | 1015.3 |
| 20260905144110 | 30 | 0.0 | 0.0 | 0.00 | 0.00 | 0.00 | 37 | 1015.2 | |
| 20260905143104 | 29 | 225 | 3.2 | 4.8 | 0.00 | 0.00 | 0.00 | 38 | 1015.1 |
| 20260905142109 | 30 | 270 | 4.8 | 9.7 | 0.00 | 0.00 | 0.00 | 36 | 1015.1 |
| 20260905141104 | 30 | 270 | 3.2 | 4.8 | 0.00 | 0.00 | 0.00 | 36 | 1015.1 |
| 20260905140109 | 30 | 315 | 3.2 | 8.0 | 0.00 | 0.00 | 0.00 | 37 | 1015.0 |
| 20260905135105 | 30 | 270 | 3.2 | 4.8 | 0.00 | 0.00 | 0.00 | 41 | 1015.1 |
| 20260905134110 | 28 | 292 | 1.6 | 4.8 | 0.00 | 0.00 | 0.00 | 45 | 1015.1 |
| 20260905133105 | 27 | 270 | 4.8 | 6.4 | 0.00 | 0.00 | 0.00 | 45 | 1014.8 |
| 20260905132111 | 27 | 225 | 1.6 | 6.4 | 0.00 | 0.00 | 0.00 | 46 | 1014.7 |
| 20260905131105 | 26 | 225 | 6.4 | 9.7 | 0.00 | 0.00 | 0.00 | 50 | 1015.2 |
| 20260905130110 | 26 | 270 | 11.3 | 14.5 | 0.00 | 0.00 | 0.00 | 50 | 1015.0 |
| 20260905125124 | 26 | 315 | 9.7 | 16.1 | 0.00 | 0.00 | 0.00 | 52 | 1015.1 |
| 20260905124130 | 26 | 315 | 6.4 | 14.5 | 0.00 | 0.00 | 0.00 | 52 | 1015.0 |
| 20260905123105 | 26 | 315 | 9.7 | 14.5 | 0.00 | 0.00 | 0.00 | 53 | 1014.7 |
| 20260905122110 | 26 | 180 | 9.7 | 14.5 | 0.00 | 0.00 | 0.00 | 54 | 1014.8 |
| 20260905121104 | 26 | 270 | 12.9 | 17.7 | 0.00 | 0.00 | 0.00 | 50 | 1014.5 |
| 20260905120110 | 28 | 315 | 9.7 | 14.5 | 0.00 | 0.00 | 0.00 | 46 | 1014.8 |
| 20260905115105 | 28 | 270 | 3.2 | 8.0 | 0.00 | 0.00 | 0.00 | 46 | 1014.6 |
| 20260905114110 | 30 | 270 | 1.6 | 6.4 | 0.00 | 0.00 | 0.00 | 41 | 1014.6 |
| 20260905113105 | 33 | 270 | 8.0 | 9.7 | 0.00 | 0.00 | 0.00 | 36 | 1014.8 |
| 20260905112110 | 34 | 0.0 | 0.0 | 0.00 | 0.00 | 0.00 | 35 | 1014.6 | |
| 20260905111104 | 33 | 0.0 | 0.0 | 0.00 | 0.00 | 0.00 | 34 | 1014.6 | |
| 20260905110110 | 32 | 0.0 | 0.0 | 0.00 | 0.00 | 0.00 | 35 | 1014.7 | |
| 20260905105105 | 32 | 0.0 | 0.0 | 0.00 | 0.00 | 0.00 | 35 | 1014.5 | |
| 20260905104110 | 32 | 0.0 | 0.0 | 0.00 | 0.00 | 0.00 | 36 | 1014.5 | |
| 20260905103105 | 31 | 135 | 0.0 | 1.6 | 0.00 | 0.00 | 0.00 | 38 | 1014.5 |
| 20260905102110 | 31 | 0.0 | 0.0 | 0.00 | 0.00 | 0.00 | 40 | 1014.4 | |
| 20260905100707 | 31 | 0.0 | 1.6 | 0.00 | 0.00 | 0.00 | 42 | 1014.5 | |
| 20260905095643 | 30 | 0.0 | 0.0 | 0.00 | 0.00 | 0.00 | 43 | 1014.5 | |
| 20260905094727 | 30 | 0.0 | 0.0 | 0.00 | 0.00 | 0.00 | 45 | 1014.5 | |
| 20260905093623 | 28 | 0.0 | 0.0 | 0.00 | 0.00 | 0.00 | 46 | 1014.6 | |
| 20260905092647 | 28 | 0.0 | 0.0 | 0.00 | 0.00 | 0.00 | 47 | 1014.6 | |
| 20260905091643 | 28 | 0.0 | 0.0 | 0.00 | 0.00 | 0.00 | 48 | 1014.5 | |
| 20260905090646 | 28 | 0.0 | 0.0 | 0.00 | 0.00 | 0.00 | 49 | 1014.6 | |
| 20260905085622 | 27 | 0.0 | 0.0 | 0.00 | 0.00 | 0.00 | 51 | 1014.5 | |
| 20260905084707 | 26 | 0.0 | 0.0 | 0.00 | 0.00 | 0.00 | 53 | 1014.5 | |
| 20260905083643 | 26 | 0.0 | 0.0 | 0.00 | 0.00 | 0.00 | 55 | 1014.6 | |
| 20260905082647 | 25 | 0.0 | 0.0 | 0.00 | 0.00 | 0.00 | 58 | 1014.5 | |
| 20260905081623 | 25 | 0.0 | 0.0 | 0.00 | 0.00 | 0.00 | 60 | 1014.6 | |
| 20260905080647 | 25 | 0.0 | 0.0 | 0.00 | 0.00 | 0.00 | 61 | 1014.6 | |
| 20260905075622 | 23 | 0.0 | 1.6 | 0.00 | 0.00 | 0.00 | 64 | 1014.6 | |
| 20260905074159 | 23 | 0.0 | 0.0 | 0.00 | 0.00 | 0.00 | 65 | 1014.6 | |
| 20260905072709 | 22 | 180 | 0.0 | 3.2 | 0.00 | 0.00 | 0.00 | 64 | 1014.6 |
| 20260905071642 | 22 | 0.0 | 0.0 | 0.00 | 0.00 | 0.00 | 63 | 1014.4 | |
| 20260905070219 | 23 | 0.0 | 0.0 | 0.00 | 0.00 | 0.00 | 61 | 1014.5 | |
| 20260905064735 | 23 | 0.0 | 0.0 | 0.00 | 0.00 | 0.00 | 61 | 1014.4 | |
| 20260905063622 | 23 | 0.0 | 0.0 | 0.00 | 0.00 | 0.00 | 61 | 1014.2 | |
| 20260905062647 | 23 | 0.0 | 0.0 | 0.00 | 0.00 | 0.00 | 61 | 1014.3 | |
| 20260905061643 | 23 | 0.0 | 0.0 | 0.00 | 0.00 | 0.00 | 62 | 1014.4 | |
| 20260905060159 | 23 | 0.0 | 0.0 | 0.00 | 0.00 | 0.00 | 61 | 1014.5 | |
| 20260905054755 | 23 | 0.0 | 0.0 | 0.00 | 0.00 | 0.00 | 61 | 1014.3 | |
| 20260905053623 | 23 | 0.0 | 0.0 | 0.00 | 0.00 | 0.00 | 61 | 1014.4 | |
| 20260905052647 | 23 | 0.0 | 0.0 | 0.00 | 0.00 | 0.00 | 61 | 1014.4 | |
| 20260905051711 | 23 | 0.0 | 0.0 | 0.00 | 0.00 | 0.00 | 60 | 1014.5 | |
| 20260905050646 | 23 | 0.0 | 0.0 | 0.00 | 0.00 | 0.00 | 61 | 1014.5 | |
| 20260905045710 | 23 | 0.0 | 0.0 | 0.00 | 0.00 | 0.00 | 60 | 1014.5 | |
| 20260905044706 | 23 | 0.0 | 0.0 | 0.00 | 0.00 | 0.00 | 60 | 1014.5 | |
| 20260905043730 | 23 | 0.0 | 0.0 | 0.00 | 0.00 | 0.00 | 58 | 1014.7 | |
| 20260905042647 | 23 | 0.0 | 0.0 | 0.00 | 0.00 | 0.00 | 58 | 1014.6 | |
| 20260905041622 | 23 | 0.0 | 0.0 | 0.00 | 0.00 | 0.00 | 57 | 1014.8 | |
| 20260905040707 | 23 | 0.0 | 0.0 | 0.00 | 0.00 | 0.00 | 57 | 1014.8 | |
| 20260905035644 | 23 | 270 | 1.6 | 3.2 | 0.00 | 0.00 | 0.00 | 57 | 1015.0 |
| 20260905034647 | 23 | 0.0 | 0.0 | 0.00 | 0.00 | 0.00 | 58 | 1014.7 | |
| 20260905033623 | 23 | 0.0 | 0.0 | 0.00 | 0.00 | 0.00 | 58 | 1014.7 | |
| 20260905032104 | 24 | 0 | 1.6 | 4.8 | 0.00 | 0.00 | 0.00 | 57 | 1015.2 |
| 20260905030707 | 25 | 225 | 0.0 | 3.2 | 0.00 | 0.00 | 0.00 | 53 | 1015.2 |
| 20260905025136 | 26 | 0.0 | 1.6 | 0.00 | 0.00 | 0.00 | 49 | 1015.0 | |
| 20260905024115 | 26 | 0.0 | 0.0 | 0.00 | 0.00 | 0.00 | 48 | 1014.7 | |
| 20260905023223 | 26 | 0.0 | 0.0 | 0.00 | 0.00 | 0.00 | 48 | 1014.7 | |
| 20260905022114 | 26 | 0.0 | 0.0 | 0.00 | 0.00 | 0.00 | 47 | 1014.6 | |
| 20260905020647 | 26 | 135 | 1.6 | 3.2 | 0.00 | 0.00 | 0.00 | 49 | 1014.4 |
| 20260905015623 | 26 | 90 | 3.2 | 8.0 | 0.00 | 0.00 | 0.00 | 50 | 1014.6 |
| 20260905014111 | 26 | 135 | 1.6 | 3.2 | 0.00 | 0.00 | 0.00 | 51 | 1014.6 |
| 20260905012623 | 26 | 90 | 3.2 | 8.0 | 0.00 | 0.00 | 0.00 | 52 | 1014.6 |
| 20260905011624 | 26 | 0.0 | 1.6 | 0.00 | 0.00 | 0.00 | 53 | 1015.1 | |
| 20260905010111 | 25 | 0.0 | 0.0 | 0.00 | 0.00 | 0.00 | 57 | 1015.1 | |
| 20260905004623 | 25 | 0.0 | 0.0 | 0.00 | 0.00 | 0.00 | 58 | 1015.1 | |
| 20260905003644 | 25 | 0.0 | 0.0 | 0.00 | 0.00 | 0.00 | 58 | 1015.2 | |
| 20260905002623 | 25 | 0.0 | 0.0 | 0.00 | 0.00 | 0.00 | 59 | 1015.3 | |
| 20260905001643 | 24 | 0.0 | 0.0 | 0.00 | 0.00 | 0.00 | 60 | 1015.6 | |
| 20260905000644 | 25 | 180 | 0.0 | 1.6 | 0.00 | 0.00 | 0.00 | 60 | 1015.8 |
| 20260904235623 | 24 | 90 | 0.0 | 3.2 | 0.00 | 0.00 | 0.00 | 64 | 1015.6 |
| 20260904234110 | 23 | 0.0 | 1.6 | 0.00 | 0.00 | 0.00 | 66 | 1016.0 | |
| 20260904232624 | 22 | 135 | 1.6 | 4.8 | 0.00 | 0.00 | 0.00 | 65 | 1016.1 |
| 20260904231623 | 23 | 0.0 | 0.0 | 0.00 | 0.00 | 0.00 | 65 | 1016.3 | |
| 20260904230623 | 23 | 0.0 | 1.6 | 0.00 | 0.00 | 0.00 | 65 | 1016.5 | |
| 20260904225623 | 23 | 0.0 | 0.0 | 0.00 | 0.00 | 0.00 | 66 | 1016.9 | |
| 20260904224131 | 22 | 0.0 | 0.0 | 0.00 | 0.00 | 0.00 | 66 | 1017.4 | |
| 20260904222623 | 22 | 225 | 1.6 | 3.2 | 0.00 | 0.00 | 0.00 | 66 | 1016.9 |
| 20260904221624 | 22 | 135 | 4.8 | 6.4 | 0.00 | 0.00 | 0.00 | 66 | 1016.8 |
| 20260904220111 | 22 | 0.0 | 1.6 | 0.00 | 0.00 | 0.00 | 65 | 1017.2 | |
| 20260904214624 | 22 | 0.0 | 0.0 | 0.00 | 0.00 | 0.00 | 64 | 1017.4 | |
| 20260904213624 | 22 | 0.0 | 0.0 | 0.00 | 0.00 | 0.00 | 64 | 1017.7 | |
| 20260904212111 | 22 | 0.0 | 0.0 | 0.00 | 0.00 | 0.00 | 63 | 1018.1 | |
| 20260904210624 | 22 | 0.0 | 1.6 | 0.00 | 0.00 | 0.00 | 62 | 1018.1 | |
| 20260904205624 | 23 | 0.0 | 0.0 | 0.00 | 0.00 | 0.00 | 61 | 1017.9 | |
| 20260904204624 | 23 | 0.0 | 3.2 | 0.00 | 0.00 | 0.00 | 60 | 1017.8 | |
| 20260904203623 | 23 | 315 | 8.0 | 11.3 | 0.00 | 0.00 | 0.00 | 61 | 1017.9 |